Time;durP1;ratioP1;P1;durP2;ratioP2;P2;SDS_P1;SDS_P2;PMS_P1;PMS_P2;Temp;Humidity;BMP_temperature;BMP_pressure;BME280_temperature;BME280_humidity;BME280_pressure;Samples;Min_cycle;Max_cycle;Signal;HPM_P1;HPM_P2
2022/06/18 00:00:04;;;;;;;;;;;;;;;;;;349990;28;921;-71
2022/06/18 00:00:16;;;;;;;;;;;;;;;;;;349962;28;905;-70
2022/06/18 00:00:26;;;;;;;;;;;;;;;;;;350015;28;960;-71
2022/06/18 00:00:37;;;;;;;;;;;;;;;;;;349944;28;905;-71
2022/06/18 00:00:47;;;;;;;;;;;;;;;;;;350411;28;1805;-70
2022/06/18 00:00:58;;;;;;;;;;;;;;;;;;351423;28;841;-71
2022/06/18 00:01:09;;;;;;;;;;;;;;;;;;351371;28;893;-71
2022/06/18 00:01:19;;;;;;;;;;;;;;;;;;351375;28;860;-71
2022/06/18 00:01:33;;;;;;;;;;;;;;;;;;351314;28;1134;-70
2022/06/18 00:01:44;;;;;;;;;;;;;;;;;;351399;28;1015;-71
2022/06/18 00:01:54;;;;;;;;;;;;;;;;;;351431;28;877;-70
2022/06/18 00:02:09;;;;;;;;;;;;;;;;;;351366;28;873;-70
2022/06/18 00:02:20;;;;;;;;;;;;;;;;;;351367;28;1016;-71
2022/06/18 00:02:31;;;;;;;;;;;;;;;;;;351357;28;808;-70
2022/06/18 00:02:41;;;;;;;;;;;;;;;;;;350837;28;1847;-70
2022/06/18 00:02:52;;;;;;;;;;;;;;;;;;351314;28;1548;-70
2022/06/18 00:03:02;;;;;;;;;;;;;;;;;;352732;28;984;-70
2022/06/18 00:03:12;;;;;;;;;;;;;;;;;;352739;28;1193;-70
2022/06/18 00:03:23;;;;;;;;;;;;;;;;;;352165;28;1591;-70
2022/06/18 00:03:33;;;;;;;;;;;;;;;;;;351304;28;936;-70
2022/06/18 00:03:44;;;;;;;;;;;;;;;;;;351020;28;920;-70
2022/06/18 00:03:54;;;;;;;;;;;;;;;;;;350016;28;865;-70
2022/06/18 00:04:14;;;;;;;;;;;;;;;;;;350007;28;971;-71
2022/06/18 00:04:25;;;;;;;;;;;;;;;;;;349943;28;948;-70
2022/06/18 00:04:35;;;;;;;;;;;;;;;;;;349963;28;1042;-70
2022/06/18 00:04:46;;;;;;;;;;;;;;;;;;350004;28;987;-70
2022/06/18 00:04:56;;;;;;;;;;;;;;;;;;349990;28;925;-70
2022/06/18 00:05:07;;;;;;;;;;;;;;;;;;350139;28;1572;-70
2022/06/18 00:05:18;;;;;;;;;;;;;;;;;;351989;28;1595;-70
2022/06/18 00:05:29;;;;;;;;;;;;;;;;;;352783;28;944;-70
2022/06/18 00:05:40;;;;;;;;;;;;;;;;;;352730;28;924;-70
2022/06/18 00:05:54;;;;;;;;;;;;;;;;;;352684;28;1000;-70
2022/06/18 00:06:04;;;;;;;;;;;;;;;;;;352809;28;939;-70
2022/06/18 00:06:14;;;;;;;;;;;;;;;;;;352427;28;1669;-70
2022/06/18 00:06:24;;;;;;;;;;;;;;;;;;352806;28;805;-70
2022/06/18 00:06:38;;;;;;;;;;;;;;;;;;352731;28;1657;-70
2022/06/18 00:06:53;;;;;;;;;;;;;;;;;;352803;28;940;-70
2022/06/18 00:07:05;;;;;;;;;;;;;;;;;;352775;28;920;-70
2022/06/18 00:07:17;;;;;;;;;;;;;;;;;;352738;28;952;-70
2022/06/18 00:07:27;;;;;;;;;;;;;;;;;;351232;28;1295;-70
2022/06/18 00:07:39;;;;;;;;;;;;;;;;;;351297;28;1380;-70
2022/06/18 00:07:51;;;;;;;;;;;;;;;;;;350811;28;1819;-70
2022/06/18 00:08:02;;;;;;;;;;;;;;;;;;350012;28;1046;-70
2022/06/18 00:08:19;;;;;;;;;;;;;;;;;;349934;28;925;-70
2022/06/18 00:08:29;;;;;;;;;;;;;;;;;;349968;28;842;-70
2022/06/18 00:08:40;;;;;;;;;;;;;;;;;;349999;28;802;-70
2022/06/18 00:08:51;;;;;;;;;;;;;;;;;;349723;28;1797;-70
2022/06/18 00:09:02;;;;;;;;;;;;;;;;;;351278;28;1114;-70
2022/06/18 00:09:13;;;;;;;;;;;;;;;;;;351397;28;999;-70
2022/06/18 00:09:28;;;;;;;;;;;;;;;;;;351395;28;976;-70
2022/06/18 00:09:43;;;;;;;;;;;;;;;;;;351321;28;949;-70
2022/06/18 00:09:55;;;;;;;;;;;;;;;;;;351344;28;805;-70
2022/06/18 00:10:06;;;;;;;;;;;;;;;;;;351308;28;996;-70
2022/06/18 00:10:19;;;;;;;;;;;;;;;;;;351318;28;991;-70
2022/06/18 00:10:30;;;;;;;;;;;;;;;;;;351353;28;984;-70
2022/06/18 00:10:40;;;;;;;;;;;;;;;;;;351334;28;913;-70
2022/06/18 00:10:54;;;;;;;;;;;;;;;;;;351375;28;999;-70
2022/06/18 00:13:42;;;;;;;;;;;;;;;;;;350001;28;802;-70
2022/06/18 00:13:53;;;;;;;;;;;;;;;;;;349507;28;1862;-70
2022/06/18 00:14:03;;;;;;;;;;;;;;;;;;351150;28;1021;-70
2022/06/18 00:14:13;;;;;;;;;;;;;;;;;;351344;28;947;-70
2022/06/18 00:14:23;;;;;;;;;;;;;;;;;;351376;28;1086;-70
2022/06/18 00:14:33;;;;;;;;;;;;;;;;;;351408;28;992;-70
2022/06/18 00:14:44;;;;;;;;;;;;;;;;;;351381;28;860;-70
2022/06/18 00:14:54;;;;;;;;;;;;;;;;;;351358;28;936;-70
2022/06/18 00:15:31;;;;;;;;;;;;;;;;;;351297;28;1003;-70
2022/06/18 00:15:42;;;;;;;;;;;;;;;;;;350132;27;1227;-70
2022/06/18 00:15:56;;;;;;;;;;;;;;;;;;351335;28;967;-70
2022/06/18 00:16:10;;;;;;;;;;;;;;;;;;351279;28;876;-70
2022/06/18 00:16:20;;;;;;;;;;;;;;;;;;351318;28;804;-70
2022/06/18 00:16:31;;;;;;;;;;;;;;;;;;351355;28;912;-70
2022/06/18 00:16:41;;;;;;;;;;;;;;;;;;351359;28;947;-70
2022/06/18 00:16:52;;;;;;;;;;;;;;;;;;351303;28;955;-70
2022/06/18 00:17:08;;;;;;;;;;;;;;;;;;351367;28;909;-70
2022/06/18 00:17:19;;;;;;;;;;;;;;;;;;351413;28;974;-70
2022/06/18 00:17:29;;;;;;;;;;;;;;;;;;351365;28;908;-70
2022/06/18 00:17:39;;;;;;;;;;;;;;;;;;351386;28;971;-70
2022/06/18 00:17:49;;;;;;;;;;;;;;;;;;351328;28;841;-70
2022/06/18 00:18:00;;;;;;;;;;;;;;;;;;351374;28;923;-70
2022/06/18 00:18:12;;;;;;;;;;;;;;;;;;351289;28;948;-70
2022/06/18 00:18:22;;;;;;;;;;;;;;;;;;351392;28;884;-70
2022/06/18 00:18:32;;;;;;;;;;;;;;;;;;351338;28;916;-70
2022/06/18 00:18:42;;;;;;;;;;;;;;;;;;351309;28;924;-70
2022/06/18 00:18:53;;;;;;;;;;;;;;;;;;350608;28;1952;-70
2022/06/18 00:19:03;;;;;;;;;;;;;;;;;;351278;28;864;-70
2022/06/18 00:19:13;;;;;;;;;;;;;;;;;;351324;28;940;-70
2022/06/18 00:19:25;;;;;;;;;;;;;;;;;;351400;28;856;-70
2022/06/18 00:19:35;;;;;;;;;;;;;;;;;;351261;28;912;-70
2022/06/18 00:19:46;;;;;;;;;;;;;;;;;;351141;28;1276;-69
2022/06/18 00:19:56;;;;;;;;;;;;;;;;;;351540;28;1639;-70
2022/06/18 00:20:07;;;;;;;;;;;;;;;;;;352711;28;939;-70
2022/06/18 00:20:18;;;;;;;;;;;;;;;;;;352746;28;1010;-70
2022/06/18 00:20:30;;;;;;;;;;;;;;;;;;352734;28;852;-70
2022/06/18 00:20:41;;;;;;;;;;;;;;;;;;352705;28;982;-70
2022/06/18 00:20:51;;;;;;;;;;;;;;;;;;352747;28;959;-70
2022/06/18 00:21:03;;;;;;;;;;;;;;;;;;352805;28;983;-70
2022/06/18 00:21:15;;;;;;;;;;;;;;;;;;352729;28;1034;-70
2022/06/18 00:21:26;;;;;;;;;;;;;;;;;;352768;28;908;-70
2022/06/18 00:21:36;;;;;;;;;;;;;;;;;;352732;28;965;-70
2022/06/18 00:21:47;;;;;;;;;;;;;;;;;;352668;28;1834;-70
2022/06/18 00:21:57;;;;;;;;;;;;;;;;;;350801;28;1517;-70
2022/06/18 00:22:11;;;;;;;;;;;;;;;;;;351390;28;906;-69
2022/06/18 00:22:22;;;;;;;;;;;;;;;;;;351301;28;908;-70
2022/06/18 00:22:32;;;;;;;;;;;;;;;;;;351331;28;979;-70
2022/06/18 00:22:44;;;;;;;;;;;;;;;;;;351310;28;829;-70
2022/06/18 00:22:55;;;;;;;;;;;;;;;;;;351279;28;1623;-70
2022/06/18 00:23:09;;;;;;;;;;;;;;;;;;351382;28;944;-70
2022/06/18 00:23:19;;;;;;;;;;;;;;;;;;351355;28;805;-70
2022/06/18 00:23:29;;;;;;;;;;;;;;;;;;351384;28;825;-70
2022/06/18 00:23:40;;;;;;;;;;;;;;;;;;351321;28;948;-70
2022/06/18 00:23:51;;;;;;;;;;;;;;;;;;351105;28;1776;-69
2022/06/18 00:24:01;;;;;;;;;;;;;;;;;;350842;28;1353;-70
2022/06/18 00:24:13;;;;;;;;;;;;;;;;;;351415;28;964;-70
2022/06/18 00:24:23;;;;;;;;;;;;;;;;;;351354;28;999;-70
2022/06/18 00:24:33;;;;;;;;;;;;;;;;;;351333;28;915;-70
2022/06/18 00:24:44;;;;;;;;;;;;;;;;;;351291;28;979;-70
2022/06/18 00:24:55;;;;;;;;;;;;;;;;;;351414;28;1036;-70
2022/06/18 00:25:20;;;;;;;;;;;;;;;;;;351348;28;931;-70
2022/06/18 00:25:35;;;;;;;;;;;;;;;;;;351343;28;920;-70
2022/06/18 00:25:47;;;;;;;;;;;;;;;;;;351330;28;916;-70
2022/06/18 00:25:57;;;;;;;;;;;;;;;;;;351372;28;885;-70
2022/06/18 00:26:08;;;;;;;;;;;;;;;;;;351362;28;936;-70
2022/06/18 00:26:18;;;;;;;;;;;;;;;;;;351321;28;936;-70
2022/06/18 00:26:28;;;;;;;;;;;;;;;;;;350268;28;1804;-70
2022/06/18 00:26:39;;;;;;;;;;;;;;;;;;350697;28;1603;-69
2022/06/18 00:26:49;;;;;;;;;;;;;;;;;;351351;28;924;-70
2022/06/18 00:26:59;;;;;;;;;;;;;;;;;;351310;28;1027;-70
2022/06/18 00:27:10;;;;;;;;;;;;;;;;;;351382;28;832;-70
2022/06/18 00:27:21;;;;;;;;;;;;;;;;;;351389;28;802;-70
2022/06/18 00:27:31;;;;;;;;;;;;;;;;;;351366;28;912;-70
2022/06/18 00:27:41;;;;;;;;;;;;;;;;;;351313;28;920;-70
2022/06/18 00:27:51;;;;;;;;;;;;;;;;;;351334;28;769;-70
2022/06/18 00:28:06;;;;;;;;;;;;;;;;;;351359;28;928;-69
2022/06/18 00:28:21;;;;;;;;;;;;;;;;;;351409;28;860;-70
2022/06/18 00:28:32;;;;;;;;;;;;;;;;;;351344;28;920;-70
2022/06/18 00:28:42;;;;;;;;;;;;;;;;;;351332;28;785;-70
2022/06/18 00:28:53;;;;;;;;;;;;;;;;;;350578;28;1816;-70
2022/06/18 00:29:04;;;;;;;;;;;;;;;;;;351227;28;880;-69
2022/06/18 00:29:17;;;;;;;;;;;;;;;;;;351321;28;912;-70
2022/06/18 00:29:27;;;;;;;;;;;;;;;;;;351377;28;972;-70
2022/06/18 00:29:38;;;;;;;;;;;;;;;;;;351321;28;999;-70
2022/06/18 00:29:49;;;;;;;;;;;;;;;;;;351354;28;789;-70
2022/06/18 00:29:59;;;;;;;;;;;;;;;;;;351308;28;956;-70
2022/06/18 00:30:11;;;;;;;;;;;;;;;;;;351360;28;908;-70
2022/06/18 00:30:22;;;;;;;;;;;;;;;;;;351323;28;1017;-70
2022/06/18 00:30:32;;;;;;;;;;;;;;;;;;351380;28;916;-70
2022/06/18 00:30:42;;;;;;;;;;;;;;;;;;351313;28;924;-70
2022/06/18 00:30:53;;;;;;;;;;;;;;;;;;351320;28;912;-70
2022/06/18 00:31:03;;;;;;;;;;;;;;;;;;351364;28;908;-70
2022/06/18 00:31:13;;;;;;;;;;;;;;;;;;351360;28;833;-70
2022/06/18 00:31:23;;;;;;;;;;;;;;;;;;351373;28;975;-70
2022/06/18 00:31:34;;;;;;;;;;;;;;;;;;351321;28;987;-69
2022/06/18 00:31:47;;;;;;;;;;;;;;;;;;351408;28;852;-70
2022/06/18 00:31:57;;;;;;;;;;;;;;;;;;351320;28;905;-70
2022/06/18 00:32:08;;;;;;;;;;;;;;;;;;351390;28;822;-70
2022/06/18 00:32:18;;;;;;;;;;;;;;;;;;351303;28;943;-70
2022/06/18 00:32:28;;;;;;;;;;;;;;;;;;351283;28;1972;-70
2022/06/18 00:32:38;;;;;;;;;;;;;;;;;;351344;28;788;-70
2022/06/18 00:32:49;;;;;;;;;;;;;;;;;;351332;28;913;-70
2022/06/18 00:32:59;;;;;;;;;;;;;;;;;;350698;28;1914;-70
2022/06/18 00:33:10;;;;;;;;;;;;;;;;;;349721;28;1540;-70
2022/06/18 00:33:20;;;;;;;;;;;;;;;;;;349975;28;1140;-70
2022/06/18 00:33:31;;;;;;;;;;;;;;;;;;349952;28;1007;-70
2022/06/18 00:33:42;;;;;;;;;;;;;;;;;;349963;28;944;-70
2022/06/18 00:33:52;;;;;;;;;;;;;;;;;;349973;28;861;-70
2022/06/18 00:34:02;;;;;;;;;;;;;;;;;;349925;28;933;-69
2022/06/18 00:34:12;;;;;;;;;;;;;;;;;;349953;28;924;-70
2022/06/18 00:34:23;;;;;;;;;;;;;;;;;;349974;28;972;-70
2022/06/18 00:34:33;;;;;;;;;;;;;;;;;;349989;28;777;-70
2022/06/18 00:34:44;;;;;;;;;;;;;;;;;;351742;28;1607;-69
2022/06/18 00:34:54;;;;;;;;;;;;;;;;;;352699;28;824;-69
2022/06/18 00:35:05;;;;;;;;;;;;;;;;;;351120;28;1835;-69
2022/06/18 00:35:16;;;;;;;;;;;;;;;;;;351190;28;1184;-70
2022/06/18 00:35:26;;;;;;;;;;;;;;;;;;351375;28;909;-70
2022/06/18 00:35:36;;;;;;;;;;;;;;;;;;351399;28;972;-70
2022/06/18 00:35:47;;;;;;;;;;;;;;;;;;351347;28;928;-70
2022/06/18 00:36:02;;;;;;;;;;;;;;;;;;351301;28;1240;-70
2022/06/18 00:36:14;;;;;;;;;;;;;;;;;;349871;28;1760;-70
2022/06/18 00:36:24;;;;;;;;;;;;;;;;;;349973;28;904;-70
2022/06/18 00:36:36;;;;;;;;;;;;;;;;;;349971;28;943;-70
2022/06/18 00:36:46;;;;;;;;;;;;;;;;;;349963;28;924;-70
2022/06/18 00:36:57;;;;;;;;;;;;;;;;;;349867;28;940;-70
2022/06/18 00:37:11;;;;;;;;;;;;;;;;;;349974;28;932;-70
2022/06/18 00:37:21;;;;;;;;;;;;;;;;;;349975;28;972;-70
2022/06/18 00:37:32;;;;;;;;;;;;;;;;;;349941;28;932;-70
2022/06/18 00:37:43;;;;;;;;;;;;;;;;;;349992;28;1007;-70
2022/06/18 00:37:55;;;;;;;;;;;;;;;;;;349966;28;924;-70
2022/06/18 00:38:06;;;;;;;;;;;;;;;;;;349934;28;991;-70
2022/06/18 00:38:23;;;;;;;;;;;;;;;;;;350437;28;1824;-70
2022/06/18 00:38:38;;;;;;;;;;;;;;;;;;349584;28;1614;-70
2022/06/18 00:38:48;;;;;;;;;;;;;;;;;;349947;28;910;-70
2022/06/18 00:38:58;;;;;;;;;;;;;;;;;;349927;28;999;-69
2022/06/18 00:39:11;;;;;;;;;;;;;;;;;;349950;28;1105;-70
2022/06/18 00:39:21;;;;;;;;;;;;;;;;;;349973;28;904;-70
2022/06/18 00:39:32;;;;;;;;;;;;;;;;;;349988;28;865;-70
2022/06/18 00:39:42;;;;;;;;;;;;;;;;;;350018;28;841;-70
2022/06/18 00:39:52;;;;;;;;;;;;;;;;;;349935;28;873;-70
2022/06/18 00:40:10;;;;;;;;;;;;;;;;;;349727;28;1899;-69
2022/06/18 00:40:29;;;;;;;;;;;;;;;;;;350948;28;1563;-70
2022/06/18 00:40:40;;;;;;;;;;;;;;;;;;349950;28;766;-70
2022/06/18 00:40:51;;;;;;;;;;;;;;;;;;349909;28;976;-70
2022/06/18 00:41:03;;;;;;;;;;;;;;;;;;349895;28;845;-70
2022/06/18 00:41:19;;;;;;;;;;;;;;;;;;350525;28;1804;-70
2022/06/18 00:41:32;;;;;;;;;;;;;;;;;;351334;28;932;-70
2022/06/18 00:41:43;;;;;;;;;;;;;;;;;;351281;28;991;-70
2022/06/18 00:41:53;;;;;;;;;;;;;;;;;;351216;28;1144;-70
2022/06/18 00:42:05;;;;;;;;;;;;;;;;;;351321;28;959;-70
2022/06/18 00:42:22;;;;;;;;;;;;;;;;;;351333;28;909;-70
2022/06/18 00:42:32;;;;;;;;;;;;;;;;;;351344;28;786;-70
2022/06/18 00:42:44;;;;;;;;;;;;;;;;;;351382;28;916;-70
2022/06/18 00:42:56;;;;;;;;;;;;;;;;;;351297;28;968;-71
2022/06/18 00:43:12;;;;;;;;;;;;;;;;;;351284;28;991;-70
2022/06/18 00:43:32;;;;;;;;;;;;;;;;;;351334;28;964;-70
2022/06/18 00:43:45;;;;;;;;;;;;;;;;;;351323;28;928;-70
2022/06/18 00:44:02;;;;;;;;;;;;;;;;;;350738;28;1851;-69
2022/06/18 00:44:32;;;;;;;;;;;;;;;;;;349914;28;1032;-70
2022/06/18 00:44:44;;;;;;;;;;;;;;;;;;349747;28;1226;-70
2022/06/18 00:44:57;;;;;;;;;;;;;;;;;;349984;28;991;-70
2022/06/18 00:45:11;;;;;;;;;;;;;;;;;;349899;28;824;-70
2022/06/18 00:45:24;;;;;;;;;;;;;;;;;;349883;28;1031;-70
2022/06/18 00:45:34;;;;;;;;;;;;;;;;;;350140;28;1816;-70
2022/06/18 00:45:44;;;;;;;;;;;;;;;;;;351380;28;821;-70
2022/06/18 00:45:59;;;;;;;;;;;;;;;;;;351360;28;908;-70
2022/06/18 00:46:12;;;;;;;;;;;;;;;;;;351335;28;921;-70
2022/06/18 00:46:31;;;;;;;;;;;;;;;;;;351365;28;959;-70
2022/06/18 00:46:52;;;;;;;;;;;;;;;;;;351363;28;995;-70
2022/06/18 00:47:08;;;;;;;;;;;;;;;;;;351330;28;891;-70
2022/06/18 00:47:21;;;;;;;;;;;;;;;;;;351265;28;904;-70
2022/06/18 00:47:39;;;;;;;;;;;;;;;;;;351294;28;1413;-70
2022/06/18 00:47:55;;;;;;;;;;;;;;;;;;349928;28;1031;-70
2022/06/18 00:48:11;;;;;;;;;;;;;;;;;;349974;28;1116;-70
2022/06/18 00:48:27;;;;;;;;;;;;;;;;;;349963;28;924;-70
2022/06/18 00:49:04;;;;;;;;;;;;;;;;;;349956;28;975;-70
2022/06/18 00:49:23;;;;;;;;;;;;;;;;;;348305;28;1165;-70
2022/06/18 00:49:59;;;;;;;;;;;;;;;;;;348360;28;937;-70
2022/06/18 00:50:16;;;;;;;;;;;;;;;;;;346641;28;1188;-70
2022/06/18 00:50:37;;;;;;;;;;;;;;;;;;349884;28;1892;-70
2022/06/18 00:50:57;;;;;;;;;;;;;;;;;;350582;28;1389;-70
2022/06/18 00:51:18;;;;;;;;;;;;;;;;;;349895;28;925;-70
2022/06/18 00:51:31;;;;;;;;;;;;;;;;;;349875;28;805;-70
2022/06/18 00:51:45;;;;;;;;;;;;;;;;;;349929;28;925;-69
2022/06/18 00:51:56;;;;;;;;;;;;;;;;;;349924;28;920;-70
2022/06/18 00:52:18;;;;;;;;;;;;;;;;;;350296;28;928;-70
2022/06/18 00:52:33;;;;;;;;;;;;;;;;;;351288;28;1910;-70
2022/06/18 00:52:51;;;;;;;;;;;;;;;;;;351283;28;856;-70
2022/06/18 00:53:13;;;;;;;;;;;;;;;;;;351360;28;1027;-70
2022/06/18 00:53:31;;;;;;;;;;;;;;;;;;351309;28;948;-70
2022/06/18 00:53:55;;;;;;;;;;;;;;;;;;351361;28;857;-70
2022/06/18 00:54:17;;;;;;;;;;;;;;;;;;350477;28;1812;-70
2022/06/18 00:54:31;;;;;;;;;;;;;;;;;;351337;28;932;-70
2022/06/18 00:54:46;;;;;;;;;;;;;;;;;;351251;28;1016;-70
2022/06/18 00:55:02;;;;;;;;;;;;;;;;;;351327;28;1110;-70
2022/06/18 00:55:19;;;;;;;;;;;;;;;;;;351332;28;969;-70
2022/06/18 00:55:46;;;;;;;;;;;;;;;;;;351350;28;908;-70
2022/06/18 00:55:56;;;;;;;;;;;;;;;;;;351302;28;916;-70
2022/06/18 00:56:11;;;;;;;;;;;;;;;;;;351323;28;940;-70
2022/06/18 00:56:30;;;;;;;;;;;;;;;;;;351318;28;1055;-70
2022/06/18 00:56:46;;;;;;;;;;;;;;;;;;351322;28;976;-70
2022/06/18 00:57:02;;;;;;;;;;;;;;;;;;350708;28;1354;-70
2022/06/18 00:57:31;;;;;;;;;;;;;;;;;;351297;28;996;-70
2022/06/18 00:57:52;;;;;;;;;;;;;;;;;;349930;28;984;-70
2022/06/18 00:58:20;;;;;;;;;;;;;;;;;;349896;28;1007;-70
2022/06/18 00:58:35;;;;;;;;;;;;;;;;;;349984;28;845;-70
2022/06/18 00:58:58;;;;;;;;;;;;;;;;;;350245;28;976;-70
2022/06/18 00:59:18;;;;;;;;;;;;;;;;;;350267;28;1764;-70
2022/06/18 00:59:35;;;;;;;;;;;;;;;;;;350172;28;904;-70
2022/06/18 01:00:11;;;;;;;;;;;;;;;;;;350173;28;1065;-70
2022/06/18 01:00:37;;;;;;;;;;;;;;;;;;349927;28;1102;-70
2022/06/18 01:00:48;;;;;;;;;;;;;;;;;;350257;28;916;-70
2022/06/18 01:00:59;;;;;;;;;;;;;;;;;;350223;28;1008;-70
2022/06/18 01:01:13;;;;;;;;;;;;;;;;;;350148;28;1251;-70
2022/06/18 01:01:34;;;;;;;;;;;;;;;;;;350234;28;917;-70
2022/06/18 01:01:46;;;;;;;;;;;;;;;;;;352009;28;1615;-69
2022/06/18 01:01:57;;;;;;;;;;;;;;;;;;352918;28;990;-70
2022/06/18 01:02:12;;;;;;;;;;;;;;;;;;351015;28;1858;-70
2022/06/18 01:02:26;;;;;;;;;;;;;;;;;;350221;28;976;-69
2022/06/18 01:02:39;;;;;;;;;;;;;;;;;;350179;28;857;-70
2022/06/18 01:02:49;;;;;;;;;;;;;;;;;;352898;28;1595;-70
2022/06/18 01:03:00;;;;;;;;;;;;;;;;;;353061;28;936;-70
2022/06/18 01:03:29;;;;;;;;;;;;;;;;;;351959;28;868;-70
2022/06/18 01:03:40;;;;;;;;;;;;;;;;;;351562;28;920;-70
2022/06/18 01:03:50;;;;;;;;;;;;;;;;;;351629;28;971;-70
2022/06/18 01:04:00;;;;;;;;;;;;;;;;;;351540;28;920;-70
2022/06/18 01:04:24;;;;;;;;;;;;;;;;;;351655;28;801;-70
2022/06/18 01:04:34;;;;;;;;;;;;;;;;;;351550;28;983;-70
2022/06/18 01:04:45;;;;;;;;;;;;;;;;;;351665;28;858;-70
2022/06/18 01:04:55;;;;;;;;;;;;;;;;;;351603;28;892;-70
2022/06/18 01:05:17;;;;;;;;;;;;;;;;;;350655;28;1883;-70
2022/06/18 01:05:34;;;;;;;;;;;;;;;;;;351581;28;985;-70
2022/06/18 01:05:44;;;;;;;;;;;;;;;;;;351621;28;987;-70
2022/06/18 01:05:55;;;;;;;;;;;;;;;;;;351586;28;928;-70
2022/06/18 01:06:17;;;;;;;;;;;;;;;;;;351555;28;916;-70
2022/06/18 01:06:29;;;;;;;;;;;;;;;;;;351595;28;932;-70
2022/06/18 01:06:39;;;;;;;;;;;;;;;;;;351578;28;1075;-70
2022/06/18 01:06:51;;;;;;;;;;;;;;;;;;351568;28;1165;-70
2022/06/18 01:07:25;;;;;;;;;;;;;;;;;;351584;28;1074;-70
2022/06/18 01:07:37;;;;;;;;;;;;;;;;;;349088;28;1830;-70
2022/06/18 01:07:58;;;;;;;;;;;;;;;;;;350359;28;1141;-70
2022/06/18 01:08:15;;;;;;;;;;;;;;;;;;351514;28;920;-70
2022/06/18 01:08:28;;;;;;;;;;;;;;;;;;351603;28;1202;-70
2022/06/18 01:08:40;;;;;;;;;;;;;;;;;;351578;28;868;-70
2022/06/18 01:08:55;;;;;;;;;;;;;;;;;;351627;28;656;-69
2022/06/18 01:09:13;;;;;;;;;;;;;;;;;;351636;28;1002;-70
2022/06/18 01:09:23;;;;;;;;;;;;;;;;;;351616;28;987;-70
2022/06/18 01:09:35;;;;;;;;;;;;;;;;;;351118;28;1852;-69
2022/06/18 01:09:46;;;;;;;;;;;;;;;;;;351525;28;826;-70
2022/06/18 01:09:57;;;;;;;;;;;;;;;;;;351583;28;979;-69
2022/06/18 01:10:14;;;;;;;;;;;;;;;;;;351598;28;920;-69
2022/06/18 01:10:28;;;;;;;;;;;;;;;;;;351559;28;1134;-69
2022/06/18 01:10:41;;;;;;;;;;;;;;;;;;351576;28;972;-70
2022/06/18 01:10:52;;;;;;;;;;;;;;;;;;350876;28;1835;-69
2022/06/18 01:11:04;;;;;;;;;;;;;;;;;;351615;28;884;-70
2022/06/18 01:11:19;;;;;;;;;;;;;;;;;;351588;28;932;-70
2022/06/18 01:11:31;;;;;;;;;;;;;;;;;;351616;28;928;-70
2022/06/18 01:11:42;;;;;;;;;;;;;;;;;;351583;28;979;-70
2022/06/18 01:11:53;;;;;;;;;;;;;;;;;;350267;28;1788;-69
2022/06/18 01:12:03;;;;;;;;;;;;;;;;;;350215;28;1047;-70
2022/06/18 01:12:13;;;;;;;;;;;;;;;;;;350215;28;786;-69
2022/06/18 01:12:24;;;;;;;;;;;;;;;;;;350126;28;1906;-69
2022/06/18 01:12:35;;;;;;;;;;;;;;;;;;350149;28;914;-70
2022/06/18 01:12:45;;;;;;;;;;;;;;;;;;350218;28;948;-70
2022/06/18 01:12:56;;;;;;;;;;;;;;;;;;350203;28;920;-69
2022/06/18 01:13:08;;;;;;;;;;;;;;;;;;350227;28;789;-70
2022/06/18 01:13:20;;;;;;;;;;;;;;;;;;349963;28;1777;-69
2022/06/18 01:13:40;;;;;;;;;;;;;;;;;;350147;28;925;-70
2022/06/18 01:13:50;;;;;;;;;;;;;;;;;;352278;27;1653;-70
2022/06/18 01:14:04;;;;;;;;;;;;;;;;;;351519;28;1082;-70
2022/06/18 01:14:17;;;;;;;;;;;;;;;;;;351629;28;912;-69
2022/06/18 01:14:27;;;;;;;;;;;;;;;;;;351570;28;980;-69
2022/06/18 01:14:38;;;;;;;;;;;;;;;;;;351585;28;983;-69
2022/06/18 01:14:51;;;;;;;;;;;;;;;;;;351578;28;1000;-70
2022/06/18 01:15:03;;;;;;;;;;;;;;;;;;351628;28;790;-70
2022/06/18 01:15:13;;;;;;;;;;;;;;;;;;351647;28;975;-70
2022/06/18 01:15:24;;;;;;;;;;;;;;;;;;350083;28;1815;-69
2022/06/18 01:15:34;;;;;;;;;;;;;;;;;;350383;28;1566;-69
2022/06/18 01:15:45;;;;;;;;;;;;;;;;;;351593;28;1026;-70
2022/06/18 01:15:57;;;;;;;;;;;;;;;;;;351575;28;956;-69
2022/06/18 01:16:08;;;;;;;;;;;;;;;;;;351592;28;924;-69
2022/06/18 01:16:18;;;;;;;;;;;;;;;;;;351563;28;832;-70
2022/06/18 01:16:29;;;;;;;;;;;;;;;;;;351536;28;959;-70
2022/06/18 01:16:39;;;;;;;;;;;;;;;;;;351600;28;904;-70
2022/06/18 01:16:50;;;;;;;;;;;;;;;;;;351586;28;1067;-70
2022/06/18 01:17:02;;;;;;;;;;;;;;;;;;351529;28;987;-70
2022/06/18 01:17:13;;;;;;;;;;;;;;;;;;351639;28;841;-70
2022/06/18 01:17:23;;;;;;;;;;;;;;;;;;351603;28;920;-70
2022/06/18 01:17:33;;;;;;;;;;;;;;;;;;351612;28;841;-70
2022/06/18 01:17:44;;;;;;;;;;;;;;;;;;351559;28;826;-69
2022/06/18 01:17:55;;;;;;;;;;;;;;;;;;351613;28;845;-69
2022/06/18 01:18:06;;;;;;;;;;;;;;;;;;351630;28;920;-70
2022/06/18 01:18:16;;;;;;;;;;;;;;;;;;351607;28;913;-70
2022/06/18 01:18:26;;;;;;;;;;;;;;;;;;351555;28;948;-70
2022/06/18 01:18:38;;;;;;;;;;;;;;;;;;351571;28;793;-70
2022/06/18 01:18:49;;;;;;;;;;;;;;;;;;351592;28;983;-70
2022/06/18 01:18:59;;;;;;;;;;;;;;;;;;351626;28;833;-69
2022/06/18 01:19:16;;;;;;;;;;;;;;;;;;351575;28;1024;-69
2022/06/18 01:19:33;;;;;;;;;;;;;;;;;;351648;28;789;-70
2022/06/18 01:19:46;;;;;;;;;;;;;;;;;;351370;28;1382;-70
2022/06/18 01:19:56;;;;;;;;;;;;;;;;;;351287;28;1347;-69
2022/06/18 01:20:09;;;;;;;;;;;;;;;;;;351574;28;897;-69
2022/06/18 01:20:20;;;;;;;;;;;;;;;;;;351526;28;1007;-70
2022/06/18 01:20:32;;;;;;;;;;;;;;;;;;351632;28;900;-70
2022/06/18 01:20:44;;;;;;;;;;;;;;;;;;351556;28;773;-70
2022/06/18 01:20:55;;;;;;;;;;;;;;;;;;351552;28;971;-69
2022/06/18 01:21:10;;;;;;;;;;;;;;;;;;351629;28;817;-70
2022/06/18 01:21:40;;;;;;;;;;;;;;;;;;351612;28;901;-70
2022/06/18 01:22:03;;;;;;;;;;;;;;;;;;350696;27;1783;-69
2022/06/18 01:22:31;;;;;;;;;;;;;;;;;;351564;28;1015;-69
2022/06/18 01:22:58;;;;;;;;;;;;;;;;;;351547;28;917;-70
2022/06/18 01:23:12;;;;;;;;;;;;;;;;;;351709;28;797;-70
2022/06/18 01:23:31;;;;;;;;;;;;;;;;;;351581;28;1125;-69
2022/06/18 01:23:50;;;;;;;;;;;;;;;;;;351568;28;953;-70
2022/06/18 01:24:10;;;;;;;;;;;;;;;;;;351560;28;1104;-70
2022/06/18 01:24:21;;;;;;;;;;;;;;;;;;351576;28;912;-69
2022/06/18 01:24:33;;;;;;;;;;;;;;;;;;351529;28;1003;-70
2022/06/18 01:24:44;;;;;;;;;;;;;;;;;;351593;28;901;-70
2022/06/18 01:24:55;;;;;;;;;;;;;;;;;;349661;28;1328;-69
2022/06/18 01:25:07;;;;;;;;;;;;;;;;;;350211;28;964;-70
2022/06/18 01:25:17;;;;;;;;;;;;;;;;;;350165;28;920;-70
2022/06/18 01:25:28;;;;;;;;;;;;;;;;;;350215;28;1003;-69
2022/06/18 01:25:38;;;;;;;;;;;;;;;;;;350229;28;774;-70
2022/06/18 01:25:49;;;;;;;;;;;;;;;;;;350188;28;742;-70
2022/06/18 01:25:59;;;;;;;;;;;;;;;;;;350130;28;1113;-69
2022/06/18 01:26:10;;;;;;;;;;;;;;;;;;350100;28;933;-70
2022/06/18 01:26:20;;;;;;;;;;;;;;;;;;350214;28;995;-69
2022/06/18 01:26:30;;;;;;;;;;;;;;;;;;350213;28;964;-70
2022/06/18 01:26:43;;;;;;;;;;;;;;;;;;350205;28;1063;-70
2022/06/18 01:26:54;;;;;;;;;;;;;;;;;;350044;28;983;-70
2022/06/18 01:27:05;;;;;;;;;;;;;;;;;;350154;28;899;-70
2022/06/18 01:27:16;;;;;;;;;;;;;;;;;;350239;28;837;-70
2022/06/18 01:27:27;;;;;;;;;;;;;;;;;;349754;28;1879;-70
2022/06/18 01:27:37;;;;;;;;;;;;;;;;;;350145;28;1011;-70
2022/06/18 01:27:48;;;;;;;;;;;;;;;;;;350199;28;928;-70
2022/06/18 01:27:58;;;;;;;;;;;;;;;;;;350171;28;924;-70
2022/06/18 01:28:14;;;;;;;;;;;;;;;;;;350246;28;778;-70
2022/06/18 01:28:24;;;;;;;;;;;;;;;;;;351077;28;1579;-70
2022/06/18 01:28:34;;;;;;;;;;;;;;;;;;352978;28;932;-70
2022/06/18 01:28:44;;;;;;;;;;;;;;;;;;350833;28;1791;-70
2022/06/18 01:28:55;;;;;;;;;;;;;;;;;;350138;28;1183;-70
2022/06/18 01:29:05;;;;;;;;;;;;;;;;;;350190;28;992;-70
2022/06/18 01:29:15;;;;;;;;;;;;;;;;;;350174;28;980;-70
2022/06/18 01:29:26;;;;;;;;;;;;;;;;;;350182;28;1015;-70
2022/06/18 01:29:36;;;;;;;;;;;;;;;;;;350228;28;924;-70
2022/06/18 01:29:46;;;;;;;;;;;;;;;;;;349856;28;1871;-70
2022/06/18 01:29:56;;;;;;;;;;;;;;;;;;349782;28;1571;-70
2022/06/18 01:30:08;;;;;;;;;;;;;;;;;;350200;28;971;-70
2022/06/18 01:30:20;;;;;;;;;;;;;;;;;;350158;28;952;-70
2022/06/18 01:30:33;;;;;;;;;;;;;;;;;;350176;28;1088;-70
2022/06/18 01:30:44;;;;;;;;;;;;;;;;;;350210;28;770;-70
2022/06/18 01:30:54;;;;;;;;;;;;;;;;;;350225;28;963;-70
2022/06/18 01:31:04;;;;;;;;;;;;;;;;;;350169;28;912;-70
2022/06/18 01:31:15;;;;;;;;;;;;;;;;;;350158;28;963;-70
2022/06/18 01:31:25;;;;;;;;;;;;;;;;;;350212;28;928;-70
2022/06/18 01:31:36;;;;;;;;;;;;;;;;;;350252;28;849;-70
2022/06/18 01:31:47;;;;;;;;;;;;;;;;;;349787;28;1840;-69
2022/06/18 01:31:57;;;;;;;;;;;;;;;;;;351537;28;853;-70
2022/06/18 01:32:10;;;;;;;;;;;;;;;;;;351521;28;1055;-70
2022/06/18 01:32:21;;;;;;;;;;;;;;;;;;351499;28;1206;-70
2022/06/18 01:32:31;;;;;;;;;;;;;;;;;;351551;28;1910;-70
2022/06/18 01:32:42;;;;;;;;;;;;;;;;;;351653;28;968;-70
2022/06/18 01:32:53;;;;;;;;;;;;;;;;;;351552;28;908;-70
2022/06/18 01:33:07;;;;;;;;;;;;;;;;;;351485;28;1071;-70
2022/06/18 01:33:18;;;;;;;;;;;;;;;;;;351531;28;820;-70
2022/06/18 01:33:31;;;;;;;;;;;;;;;;;;351586;28;976;-70
2022/06/18 01:33:41;;;;;;;;;;;;;;;;;;351562;28;1042;-70
2022/06/18 01:33:51;;;;;;;;;;;;;;;;;;351541;28;1043;-70
2022/06/18 01:34:01;;;;;;;;;;;;;;;;;;351558;28;963;-70
2022/06/18 01:34:13;;;;;;;;;;;;;;;;;;351573;28;769;-70
2022/06/18 01:34:23;;;;;;;;;;;;;;;;;;351548;28;912;-70
2022/06/18 01:34:34;;;;;;;;;;;;;;;;;;351567;28;964;-70
2022/06/18 01:34:45;;;;;;;;;;;;;;;;;;351290;27;1819;-70